Time;durP1;ratioP1;P1;durP2;ratioP2;P2;SDS_P1;SDS_P2;PMS_P1;PMS_P2;Temp;Humidity;BMP_temperature;BMP_pressure;BME280_temperature;BME280_humidity;BME280_pressure;Samples;Min_cycle;Max_cycle;Signal;HPM_P1;HPM_P2
2021/05/27 00:01:06;;;;;;;5.22;2.50;;;20.10;47.30;;;;;;5116007;28;20107;-65
2021/05/27 00:03:32;;;;;;;5.63;3.10;;;20.10;47.20;;;;;;5115935;28;20027;-65
2021/05/27 00:05:57;;;;;;;4.55;2.40;;;20.10;47.20;;;;;;5115909;28;20019;-65
2021/05/27 00:08:23;;;;;;;5.90;2.85;;;20.10;47.20;;;;;;5115924;28;20387;-65
2021/05/27 00:10:49;;;;;;;5.18;2.92;;;20.00;47.30;;;;;;5115300;28;20051;-65
2021/05/27 00:13:14;;;;;;;5.07;2.58;;;20.00;47.20;;;;;;5115888;28;20095;-65
2021/05/27 00:15:40;;;;;;;5.65;2.78;;;20.00;47.30;;;;;;5115861;28;20459;-65
2021/05/27 00:18:06;;;;;;;5.53;2.97;;;20.00;47.30;;;;;;5115225;28;20032;-65
2021/05/27 00:20:31;;;;;;;5.28;2.90;;;20.00;47.30;;;;;;5115274;28;20020;-66
2021/05/27 00:22:57;;;;;;;7.63;3.47;;;20.00;47.20;;;;;;5114922;28;20163;-65
2021/05/27 00:25:22;;;;;;;5.85;3.10;;;20.00;47.30;;;;;;5114839;28;20016;-65
2021/05/27 00:27:48;;;;;;;5.80;2.80;;;20.00;47.30;;;;;;5114675;28;20034;-65
2021/05/27 00:30:15;;;;;;;5.43;3.28;;;20.00;47.30;;;;;;5115026;28;20027;-66
2021/05/27 00:32:41;;;;;;;6.10;3.33;;;20.00;47.30;;;;;;5114559;28;20026;-66
2021/05/27 00:35:08;;;;;;;7.53;3.40;;;20.00;47.30;;;;;;5114131;28;20103;-65
2021/05/27 00:37:34;;;;;;;5.82;3.03;;;20.00;47.30;;;;;;5114585;28;20031;-65
2021/05/27 00:40:00;;;;;;;5.90;3.35;;;20.00;47.40;;;;;;5114567;28;20020;-65
2021/05/27 00:42:26;;;;;;;5.00;2.53;;;20.00;47.30;;;;;;5113444;28;20024;-65
2021/05/27 00:45:06;;;;;;;6.40;3.33;;;20.00;47.30;;;;;;5114312;28;20028;-65
2021/05/27 00:47:32;;;;;;;5.68;3.03;;;20.00;47.30;;;;;;5113825;28;20026;-65
2021/05/27 00:49:57;;;;;;;6.18;3.13;;;20.00;47.30;;;;;;5114352;28;20027;-65
2021/05/27 00:52:23;;;;;;;6.78;3.13;;;20.00;47.30;;;;;;5114166;28;20077;-65
2021/05/27 00:54:50;;;;;;;7.28;3.92;;;20.00;47.40;;;;;;5114232;28;20035;-65
2021/05/27 00:57:35;;;;;;;6.20;3.60;;;20.00;47.40;;;;;;5114182;28;20023;-65
2021/05/27 01:00:04;;;;;;;6.95;3.38;;;20.00;47.40;;;;;;5114102;28;20042;-65
2021/05/27 01:02:30;;;;;;;8.18;3.22;;;20.00;47.40;;;;;;5114037;28;20374;-65
2021/05/27 01:04:55;;;;;;;5.68;3.10;;;20.00;47.40;;;;;;5114256;28;20110;-65
2021/05/27 01:07:22;;;;;;;6.57;3.45;;;19.90;47.40;;;;;;5113550;28;20463;-65
2021/05/27 01:09:48;;;;;;;6.82;3.72;;;19.90;47.40;;;;;;5114018;28;20356;-65
2021/05/27 01:12:14;;;;;;;5.85;3.33;;;20.00;47.40;;;;;;5113806;28;20022;-65
2021/05/27 01:17:24;;;;;;;6.45;3.55;;;19.90;47.40;;;;;;5114075;28;20034;-65
2021/05/27 01:19:53;;;;;;;6.57;3.83;;;19.90;47.40;;;;;;5113711;28;20024;-65
2021/05/27 01:22:20;;;;;;;7.03;4.03;;;19.90;47.40;;;;;;5113690;28;20193;-65
2021/05/27 01:24:50;;;;;;;7.53;4.18;;;19.90;47.40;;;;;;5113515;28;20055;-65
2021/05/27 01:27:16;;;;;;;8.52;3.65;;;19.90;47.40;;;;;;5113407;28;20106;-65
2021/05/27 01:29:42;;;;;;;6.72;3.53;;;19.90;47.50;;;;;;5113689;28;20015;-65
2021/05/27 01:32:08;;;;;;;7.03;4.22;;;19.90;47.50;;;;;;5113475;28;20563;-65
2021/05/27 01:34:34;;;;;;;6.50;3.70;;;19.90;47.50;;;;;;5113680;28;20107;-66
2021/05/27 01:37:01;;;;;;;7.80;3.88;;;19.90;47.50;;;;;;5113595;28;20054;-65
2021/05/27 01:39:26;;;;;;;7.25;4.10;;;19.80;47.50;;;;;;5113438;28;20024;-65
2021/05/27 01:41:52;;;;;;;8.27;4.30;;;19.90;47.50;;;;;;5113207;28;20030;-66
2021/05/27 01:44:17;;;;;;;7.95;4.30;;;19.80;47.50;;;;;;5113783;28;20073;-65
2021/05/27 01:46:43;;;;;;;6.03;3.70;;;19.80;47.50;;;;;;5113748;28;20459;-65
2021/05/27 01:49:09;;;;;;;7.07;4.18;;;19.80;47.50;;;;;;5113378;28;20055;-65
2021/05/27 01:51:35;;;;;;;6.32;3.47;;;19.90;47.60;;;;;;5112017;28;20034;-65
2021/05/27 01:54:00;;;;;;;8.02;4.32;;;19.80;47.50;;;;;;5113405;28;20023;-65
2021/05/27 01:56:26;;;;;;;6.47;3.75;;;19.90;47.60;;;;;;5113448;28;20544;-65
2021/05/27 01:58:52;;;;;;;6.88;3.67;;;19.80;47.60;;;;;;5113270;28;20428;-65
2021/05/27 02:01:17;;;;;;;9.05;4.15;;;19.80;47.60;;;;;;5116156;28;20019;-65
2021/05/27 02:03:43;;;;;;;8.50;4.53;;;19.80;47.60;;;;;;5117391;28;20024;-65
2021/05/27 02:06:09;;;;;;;7.97;4.68;;;19.80;47.60;;;;;;5117079;28;20032;-65
2021/05/27 02:08:34;;;;;;;8.13;4.30;;;19.80;47.70;;;;;;5117383;28;20447;-65
2021/05/27 02:11:00;;;;;;;7.28;4.18;;;19.80;47.70;;;;;;5117014;28;20038;-65
2021/05/27 02:13:25;;;;;;;9.63;4.65;;;19.80;47.70;;;;;;5117518;28;20028;-66
2021/05/27 02:15:51;;;;;;;6.68;3.97;;;19.80;47.70;;;;;;5117190;28;20016;-65
2021/05/27 02:18:16;;;;;;;9.02;4.70;;;19.80;47.70;;;;;;5115850;28;20056;-65
2021/05/27 02:20:42;;;;;;;8.95;4.68;;;19.70;47.80;;;;;;5117102;28;20352;-65
2021/05/27 02:23:07;;;;;;;7.43;4.78;;;19.70;47.80;;;;;;5116952;28;20047;-65
2021/05/27 02:25:33;;;;;;;9.38;5.18;;;19.80;47.80;;;;;;5117017;28;20028;-66
2021/05/27 02:27:58;;;;;;;7.72;4.28;;;19.70;47.90;;;;;;5116460;28;20028;-65
2021/05/27 02:30:25;;;;;;;7.32;4.15;;;19.70;47.80;;;;;;5116774;28;20024;-65
2021/05/27 02:32:51;;;;;;;9.32;4.90;;;19.70;47.80;;;;;;5116912;28;20051;-65
2021/05/27 02:35:16;;;;;;;9.35;5.00;;;19.70;47.80;;;;;;5116819;28;20027;-65
2021/05/27 02:37:42;;;;;;;7.60;4.32;;;19.70;47.90;;;;;;5116549;28;20019;-66
2021/05/27 02:40:08;;;;;;;8.43;4.78;;;19.70;47.90;;;;;;5117039;28;20015;-66
2021/05/27 02:42:33;;;;;;;7.93;4.68;;;19.70;47.90;;;;;;5116540;28;20023;-65
2021/05/27 02:44:59;;;;;;;7.80;5.07;;;19.70;47.90;;;;;;5116611;28;20091;-65
2021/05/27 02:47:25;;;;;;;10.23;4.97;;;19.70;47.90;;;;;;5116253;28;20110;-65
2021/05/27 02:49:50;;;;;;;7.70;4.40;;;19.70;47.90;;;;;;5116568;28;20500;-65
2021/05/27 02:52:16;;;;;;;8.38;5.18;;;19.70;48.00;;;;;;5116439;28;20016;-65
2021/05/27 02:54:41;;;;;;;8.05;4.90;;;19.70;47.90;;;;;;5116355;28;20510;-65
2021/05/27 02:57:07;;;;;;;8.02;4.82;;;19.70;47.90;;;;;;5116312;28;20031;-65
2021/05/27 02:59:32;;;;;;;7.95;4.68;;;19.70;48.00;;;;;;5116639;28;20027;-65
2021/05/27 03:01:58;;;;;;;8.68;4.60;;;19.60;48.00;;;;;;5116362;28;20023;-65
2021/05/27 03:04:23;;;;;;;9.38;4.80;;;19.60;48.00;;;;;;5116538;28;20016;-66
2021/05/27 03:06:49;;;;;;;8.30;4.78;;;19.60;48.00;;;;;;5115890;28;20023;-65
2021/05/27 03:09:15;;;;;;;7.82;4.45;;;19.70;48.10;;;;;;5116174;28;20032;-65
2021/05/27 03:11:40;;;;;;;8.00;5.00;;;19.60;48.10;;;;;;5115948;28;20421;-65
2021/05/27 03:14:06;;;;;;;8.98;5.57;;;19.70;48.00;;;;;;5116154;28;20042;-65
2021/05/27 03:16:31;;;;;;;9.50;5.32;;;19.60;48.10;;;;;;5115928;28;20023;-65
2021/05/27 03:18:57;;;;;;;9.15;5.70;;;19.60;48.10;;;;;;5115827;28;20494;-65
2021/05/27 03:21:22;;;;;;;7.95;4.68;;;19.60;48.10;;;;;;5115766;28;20035;-65
2021/05/27 03:23:48;;;;;;;7.95;4.70;;;19.60;48.10;;;;;;5115366;28;20047;-65
2021/05/27 03:26:15;;;;;;;7.82;4.72;;;19.60;48.10;;;;;;5115851;28;20463;-65
2021/05/27 03:28:41;;;;;;;9.70;5.40;;;19.60;48.10;;;;;;5114480;28;20044;-65
2021/05/27 03:31:06;;;;;;;8.40;5.20;;;19.60;48.10;;;;;;5115785;28;20020;-65
2021/05/27 03:33:32;;;;;;;7.80;4.68;;;19.60;48.10;;;;;;5115729;28;20131;-65
2021/05/27 03:35:58;;;;;;;9.25;5.53;;;19.60;48.10;;;;;;5115899;28;20050;-65
2021/05/27 03:38:23;;;;;;;9.32;5.20;;;19.60;48.10;;;;;;5115779;28;20452;-65
2021/05/27 03:40:49;;;;;;;8.38;5.20;;;19.50;48.20;;;;;;5115591;28;20019;-65
2021/05/27 03:43:14;;;;;;;7.30;4.70;;;19.50;48.10;;;;;;5115261;28;20035;-65
2021/05/27 03:45:40;;;;;;;8.40;4.88;;;19.50;48.10;;;;;;5115695;28;20030;-65
2021/05/27 03:48:07;;;;;;;8.35;4.90;;;19.60;48.10;;;;;;5115346;28;20534;-65
2021/05/27 03:50:33;;;;;;;10.80;5.68;;;19.60;48.20;;;;;;5115325;28;20112;-65
2021/05/27 03:53:00;;;;;;;8.52;5.15;;;19.60;48.10;;;;;;5115404;28;20023;-65
2021/05/27 03:55:27;;;;;;;8.05;4.90;;;19.60;48.20;;;;;;5115349;28;20020;-66
2021/05/27 03:57:53;;;;;;;9.65;5.63;;;19.50;48.20;;;;;;5115918;28;20023;-66
2021/05/27 04:03:07;;;;;;;7.90;4.57;;;19.50;48.20;;;;;;5125126;28;20053;-67
2021/05/27 04:08:17;;;;;;;;;;;19.50;48.20;;;;;;5125384;28;20046;-66
2021/05/27 04:10:43;;;;;;;8.40;4.85;;;19.50;48.20;;;;;;5125015;28;19904;-66
2021/05/27 04:13:09;;;;;;;8.82;5.22;;;19.50;48.20;;;;;;5126143;28;20032;-66
2021/05/27 04:15:38;;;;;;;9.35;5.70;;;19.50;48.20;;;;;;5123231;28;20076;-65
2021/05/27 04:18:14;;;;;;;8.68;4.93;;;19.50;48.20;;;;;;5124318;28;20016;-65
2021/05/27 04:20:51;;;;;;;8.77;5.03;;;19.50;48.20;;;;;;5121837;27;20019;-65
2021/05/27 04:23:33;;;;;;;8.13;4.78;;;19.50;48.20;;;;;;5113993;28;20058;-66
2021/05/27 04:26:03;;;;;;;7.80;4.70;;;19.50;48.10;;;;;;5114856;28;20019;-65
2021/05/27 04:28:30;;;;;;;8.48;4.95;;;19.50;48.10;;;;;;5115383;28;20059;-65
2021/05/27 04:31:15;;;;;;;9.07;4.88;;;19.50;48.10;;;;;;5114695;28;20023;-65
2021/05/27 04:33:43;;;;;;;9.15;4.75;;;19.50;48.10;;;;;;5114687;28;20024;-65
2021/05/27 04:36:12;;;;;;;9.27;5.28;;;19.60;48.10;;;;;;5114465;28;20020;-65
2021/05/27 04:38:38;;;;;;;8.10;4.63;;;19.50;48.10;;;;;;5113258;28;20487;-65
2021/05/27 04:41:05;;;;;;;8.88;5.03;;;19.60;48.10;;;;;;5114402;28;20023;-65
2021/05/27 04:43:31;;;;;;;7.75;4.95;;;19.60;48.10;;;;;;5114500;28;20348;-65
2021/05/27 04:45:57;;;;;;;8.02;4.70;;;19.60;48.10;;;;;;5114645;28;20027;-66
2021/05/27 04:48:22;;;;;;;7.38;4.32;;;19.60;48.10;;;;;;5114064;28;20032;-66
2021/05/27 04:50:49;;;;;;;8.18;4.80;;;19.60;48.10;;;;;;5113724;28;20094;-66
2021/05/27 04:53:16;;;;;;;9.50;4.80;;;19.60;48.10;;;;;;5114260;28;20073;-65
2021/05/27 04:55:42;;;;;;;7.60;4.47;;;19.60;48.10;;;;;;5114600;28;20065;-65
2021/05/27 04:58:07;;;;;;;8.40;4.88;;;19.60;48.10;;;;;;5114231;28;20032;-66
2021/05/27 05:00:34;;;;;;;8.00;4.90;;;19.60;48.10;;;;;;5113996;28;20036;-65
2021/05/27 05:03:00;;;;;;;8.15;4.57;;;19.60;48.10;;;;;;5113928;28;20023;-65
2021/05/27 05:05:27;;;;;;;8.98;4.68;;;19.60;48.10;;;;;;5114238;28;20027;-65
2021/05/27 05:07:54;;;;;;;8.90;4.82;;;19.60;48.10;;;;;;5114122;28;20043;-65
2021/05/27 05:10:21;;;;;;;9.13;5.10;;;19.60;48.10;;;;;;5113995;28;20043;-66
2021/05/27 05:12:50;;;;;;;8.32;5.03;;;19.60;48.20;;;;;;5113727;28;20027;-65
2021/05/27 05:15:32;;;;;;;7.95;4.82;;;19.60;48.10;;;;;;5113778;28;20065;-65
2021/05/27 05:18:03;;;;;;;9.13;4.68;;;19.60;48.10;;;;;;5113872;28;20059;-65
2021/05/27 05:20:36;;;;;;;7.60;4.50;;;19.60;48.20;;;;;;5113766;28;20035;-66
2021/05/27 05:23:02;;;;;;;7.75;4.57;;;19.60;48.10;;;;;;5113729;28;20123;-65
2021/05/27 05:25:30;;;;;;;7.18;4.32;;;19.60;48.20;;;;;;5113797;28;20580;-66
2021/05/27 05:27:56;;;;;;;8.02;4.70;;;19.60;48.10;;;;;;5113740;28;20441;-65
2021/05/27 05:30:24;;;;;;;8.30;4.05;;;19.60;48.20;;;;;;5113910;28;20376;-64
2021/05/27 05:32:49;;;;;;;7.68;4.55;;;19.60;48.20;;;;;;5113998;28;20069;-65
2021/05/27 05:35:17;;;;;;;8.57;4.70;;;19.60;48.10;;;;;;5115203;28;20370;-65
2021/05/27 05:37:44;;;;;;;7.85;4.32;;;19.60;48.20;;;;;;5118312;28;20061;-65
2021/05/27 05:40:11;;;;;;;7.43;4.20;;;19.60;48.10;;;;;;5118002;28;20023;-65
2021/05/27 05:42:39;;;;;;;6.85;4.00;;;19.60;48.10;;;;;;5118132;28;20076;-65
2021/05/27 05:45:07;;;;;;;8.40;4.70;;;19.70;48.10;;;;;;5117661;28;20027;-65
2021/05/27 05:47:33;;;;;;;8.52;4.70;;;19.60;48.10;;;;;;5117953;28;20036;-65
2021/05/27 05:49:58;;;;;;;7.85;4.70;;;19.70;48.10;;;;;;5117661;28;20030;-65
2021/05/27 05:52:24;;;;;;;7.38;4.47;;;19.70;48.10;;;;;;5117950;28;20404;-65
2021/05/27 05:54:50;;;;;;;7.43;4.20;;;19.60;48.00;;;;;;5117806;28;20489;-65
2021/05/27 05:57:15;;;;;;;7.55;4.45;;;19.70;48.10;;;;;;5117657;28;20019;-65
2021/05/27 05:59:41;;;;;;;8.07;4.78;;;19.70;48.00;;;;;;5117260;28;20085;-65
2021/05/27 06:02:07;;;;;;;8.95;4.50;;;19.70;48.00;;;;;;5118439;28;20412;-65
2021/05/27 06:04:33;;;;;;;7.70;4.47;;;19.70;48.00;;;;;;5117187;28;20364;-65
2021/05/27 06:06:59;;;;;;;7.28;4.38;;;19.70;48.00;;;;;;5117219;28;20049;-65
2021/05/27 06:09:25;;;;;;;7.07;4.10;;;19.70;48.00;;;;;;5117491;28;20068;-65
2021/05/27 06:11:52;;;;;;;7.28;4.10;;;19.70;48.00;;;;;;5117360;28;20027;-65
2021/05/27 06:14:18;;;;;;;7.40;4.43;;;19.70;48.10;;;;;;5117138;28;20042;-65
2021/05/27 06:16:43;;;;;;;7.28;4.00;;;19.70;48.00;;;;;;5115857;28;20493;-64
2021/05/27 06:19:09;;;;;;;8.10;4.13;;;19.70;48.00;;;;;;5115505;28;20023;-65
2021/05/27 06:21:34;;;;;;;6.97;3.88;;;19.80;48.00;;;;;;5116955;28;20020;-65
2021/05/27 06:24:00;;;;;;;8.38;4.30;;;19.70;48.00;;;;;;5116473;28;20084;-65
2021/05/27 06:26:26;;;;;;;7.13;3.90;;;19.70;48.00;;;;;;5117314;28;20031;-68
2021/05/27 06:28:52;;;;;;;8.38;4.60;;;19.70;48.00;;;;;;5117059;27;20115;-65
2021/05/27 06:31:17;;;;;;;8.10;3.72;;;19.70;48.00;;;;;;5116848;28;20493;-65
2021/05/27 06:33:44;;;;;;;7.60;4.38;;;19.70;48.00;;;;;;5116967;28;20115;-66
2021/05/27 06:36:10;;;;;;;8.30;3.88;;;19.70;48.00;;;;;;5116489;28;20018;-65
2021/05/27 06:38:36;;;;;;;8.05;4.35;;;19.80;48.00;;;;;;5116380;28;20459;-65
2021/05/27 06:41:02;;;;;;;7.53;4.13;;;19.70;48.00;;;;;;5116474;28;20059;-65
2021/05/27 06:43:28;;;;;;;9.35;3.47;;;19.80;48.10;;;;;;5116397;28;20027;-65
2021/05/27 06:45:55;;;;;;;7.95;3.88;;;19.70;48.10;;;;;;5115570;28;20023;-66
2021/05/27 06:48:21;;;;;;;7.60;3.85;;;19.80;48.00;;;;;;5116134;28;20418;-66
2021/05/27 06:50:46;;;;;;;7.65;4.13;;;19.80;48.00;;;;;;5116519;28;20031;-66
2021/05/27 06:53:15;;;;;;;6.85;3.50;;;19.70;48.00;;;;;;5116549;28;20432;-66
2021/05/27 06:55:42;;;;;;;8.57;4.00;;;19.80;48.00;;;;;;5116246;28;20102;-68
2021/05/27 06:58:08;;;;;;;6.95;4.05;;;19.80;48.00;;;;;;5115917;28;20613;-67
2021/05/27 07:00:34;;;;;;;9.20;3.83;;;19.70;48.20;;;;;;5116427;28;20081;-66
2021/05/27 07:03:01;;;;;;;6.07;3.33;;;19.80;48.10;;;;;;5115948;28;20059;-65
2021/05/27 07:05:28;;;;;;;7.30;3.83;;;19.80;48.20;;;;;;5116400;27;20020;-62
2021/05/27 07:07:54;;;;;;;7.00;3.90;;;19.80;48.20;;;;;;5113538;28;20108;-64
2021/05/27 07:10:20;;;;;;;6.82;3.78;;;19.80;48.20;;;;;;5108914;28;20020;-65
2021/05/27 07:12:52;;;;;;;6.95;3.50;;;19.80;48.20;;;;;;5115712;28;20032;-63
2021/05/27 07:15:20;;;;;;;8.18;3.08;;;19.80;48.20;;;;;;5115610;28;20016;-63
2021/05/27 07:17:46;;;;;;;6.75;3.33;;;19.80;48.20;;;;;;5119900;28;20020;-65
2021/05/27 07:20:13;;;;;;;7.78;3.90;;;19.80;48.20;;;;;;5118857;28;20091;-64
2021/05/27 07:22:38;;;;;;;5.93;3.10;;;19.80;48.30;;;;;;5118932;28;20053;-65
2021/05/27 07:25:05;;;;;;;8.65;3.85;;;19.80;48.30;;;;;;5115206;28;20059;-63
2021/05/27 07:27:31;;;;;;;7.00;3.75;;;19.80;48.40;;;;;;5115160;28;20082;-62
2021/05/27 07:29:57;;;;;;;6.20;3.38;;;19.80;48.40;;;;;;5114702;28;20027;-65
2021/05/27 07:32:23;;;;;;;8.00;3.50;;;19.80;48.50;;;;;;5114966;28;20496;-64
2021/05/27 07:34:49;;;;;;;7.70;3.45;;;19.80;48.50;;;;;;5114751;28;20024;-63
2021/05/27 07:37:14;;;;;;;6.22;3.60;;;19.90;48.50;;;;;;5114795;28;20042;-64
2021/05/27 07:39:40;;;;;;;7.20;3.63;;;19.90;48.50;;;;;;5114640;28;20080;-63
2021/05/27 07:42:06;;;;;;;8.05;3.88;;;19.90;48.50;;;;;;5115177;28;20046;-62
2021/05/27 07:44:36;;;;;;;8.02;4.10;;;19.90;48.40;;;;;;5095791;28;20024;-62
2021/05/27 07:47:02;;;;;;;7.32;3.70;;;19.80;48.60;;;;;;5093584;28;20043;-66
2021/05/27 07:49:28;;;;;;;7.03;3.58;;;19.80;48.80;;;;;;5082962;28;20028;-66
2021/05/27 07:51:55;;;;;;;8.43;3.95;;;19.90;48.70;;;;;;5077785;28;20024;-65
2021/05/27 07:54:21;;;;;;;8.60;3.70;;;19.90;48.60;;;;;;5089659;28;20081;-66
2021/05/27 07:56:47;;;;;;;7.57;4.05;;;19.90;48.60;;;;;;5083251;28;20341;-66
2021/05/27 07:59:14;;;;;;;7.18;3.70;;;19.90;48.70;;;;;;5083028;28;20518;-66
2021/05/27 08:01:42;;;;;;;10.88;4.00;;;19.90;48.80;;;;;;5076613;28;20041;-66
2021/05/27 08:04:09;;;;;;;9.32;4.30;;;19.80;48.90;;;;;;5084927;28;20027;-66
2021/05/27 08:06:35;;;;;;;7.10;3.47;;;19.80;49.10;;;;;;5086681;28;20392;-65
2021/05/27 08:09:01;;;;;;;9.82;3.63;;;19.80;48.80;;;;;;5083205;28;20127;-65
2021/05/27 08:11:27;;;;;;;7.85;3.92;;;19.90;48.80;;;;;;5085521;28;20048;-65
2021/05/27 08:13:53;;;;;;;7.57;3.15;;;19.90;48.70;;;;;;5073419;28;20052;-65
2021/05/27 08:16:18;;;;;;;9.88;3.33;;;19.90;48.70;;;;;;5083519;28;20471;-66
2021/05/27 08:18:44;;;;;;;8.93;3.78;;;19.90;48.60;;;;;;5087273;28;20032;-65
2021/05/27 08:21:09;;;;;;;7.53;2.80;;;19.90;48.70;;;;;;5079934;28;20033;-65
2021/05/27 08:23:36;;;;;;;9.48;3.72;;;19.90;48.70;;;;;;5089472;28;20553;-64
2021/05/27 08:26:02;;;;;;;10.52;4.00;;;19.90;48.80;;;;;;5086087;28;20020;-64
2021/05/27 08:28:28;;;;;;;9.75;3.55;;;19.90;48.80;;;;;;5084229;28;20046;-65
2021/05/27 08:30:53;;;;;;;8.98;3.80;;;19.90;48.80;;;;;;5080569;28;20078;-65
2021/05/27 08:33:19;;;;;;;8.00;3.22;;;19.90;48.70;;;;;;5093405;28;20024;-65
2021/05/27 08:35:45;;;;;;;8.00;3.72;;;19.90;48.70;;;;;;5078247;28;20513;-65
2021/05/27 08:38:10;;;;;;;11.25;3.38;;;19.90;48.80;;;;;;5083208;28;20426;-66
2021/05/27 08:40:37;;;;;;;9.63;3.63;;;19.90;48.70;;;;;;5093243;28;20468;-64
2021/05/27 08:43:04;;;;;;;9.13;3.47;;;19.90;48.90;;;;;;5076309;28;20477;-64
2021/05/27 08:45:37;;;;;;;9.25;3.40;;;19.90;48.90;;;;;;5093017;28;20020;-64
2021/05/27 08:48:03;;;;;;;10.60;3.85;;;19.90;48.90;;;;;;5083466;28;20107;-64
2021/05/27 08:50:31;;;;;;;8.48;3.90;;;19.90;48.90;;;;;;5086298;28;20060;-64
2021/05/27 08:52:58;;;;;;;8.43;3.63;;;19.80;49.40;;;;;;5085671;28;20028;-64
2021/05/27 08:55:23;;;;;;;9.68;3.22;;;19.80;49.40;;;;;;5080611;28;20059;-65
2021/05/27 08:57:49;;;;;;;9.57;3.85;;;19.90;49.10;;;;;;5091668;28;20433;-64
2021/05/27 09:00:15;;;;;;;9.15;3.75;;;19.80;49.30;;;;;;5086402;28;20021;-63
2021/05/27 09:03:02;;;;;;;10.90;3.47;;;19.90;49.00;;;;;;5084552;28;20111;-63
2021/05/27 09:05:35;;;;;;;9.68;3.33;;;19.90;48.90;;;;;;5081612;28;20399;-63
2021/05/27 09:08:02;;;;;;;8.30;3.60;;;19.90;48.90;;;;;;5087779;28;20089;-63
2021/05/27 09:10:42;;;;;;;8.65;3.70;;;20.00;48.90;;;;;;5077955;28;20028;-63
2021/05/27 09:13:10;;;;;;;9.73;4.43;;;20.00;48.90;;;;;;5073100;28;20058;-64
2021/05/27 09:15:36;;;;;;;10.85;3.53;;;20.00;48.90;;;;;;5072349;28;20246;-64
2021/05/27 09:18:01;;;;;;;8.80;3.08;;;20.00;49.30;;;;;;5072151;28;20484;-63
2021/05/27 09:20:29;;;;;;;8.07;2.97;;;19.90;49.10;;;;;;5072223;28;20025;-64
2021/05/27 09:23:17;;;;;;;8.20;3.60;;;20.00;49.30;;;;;;5075539;28;20080;-64
2021/05/27 09:25:51;;;;;;;11.05;4.13;;;20.00;49.00;;;;;;5092614;28;20020;-63
2021/05/27 09:28:25;;;;;;;6.97;3.30;;;20.00;49.10;;;;;;5095468;28;20080;-63
2021/05/27 09:30:54;;;;;;;8.35;3.38;;;20.00;49.10;;;;;;5091919;28;20028;-63
2021/05/27 09:33:35;;;;;;;8.50;3.67;;;20.00;49.00;;;;;;5102558;28;20379;-63
2021/05/27 09:36:05;;;;;;;10.48;3.60;;;20.00;49.00;;;;;;5090481;28;20024;-63
2021/05/27 09:38:35;;;;;;;9.65;3.17;;;20.00;49.10;;;;;;5090907;28;20508;-64
2021/05/27 09:41:13;;;;;;;9.25;3.40;;;20.00;49.10;;;;;;5082597;28;20025;-65
2021/05/27 09:43:40;;;;;;;8.95;3.17;;;20.00;49.30;;;;;;5074209;28;20032;-63
2021/05/27 09:46:06;;;;;;;9.85;3.40;;;19.90;49.60;;;;;;5092411;28;20016;-64
2021/05/27 09:48:33;;;;;;;9.00;3.30;;;20.00;49.40;;;;;;5091451;28;20035;-63
2021/05/27 09:51:01;;;;;;;11.50;3.40;;;20.00;49.20;;;;;;5090690;28;20030;-66
2021/05/27 09:53:28;;;;;;;7.57;3.35;;;20.00;49.40;;;;;;5089734;28;20034;-64
2021/05/27 09:55:55;;;;;;;10.43;3.70;;;20.00;49.20;;;;;;5089247;28;20024;-62
2021/05/27 09:58:21;;;;;;;9.07;3.15;;;20.00;49.30;;;;;;5082011;28;20111;-61
2021/05/27 10:00:49;;;;;;;7.90;2.92;;;20.00;49.30;;;;;;5092939;28;20105;-63
2021/05/27 10:03:28;;;;;;;6.97;3.30;;;20.00;49.20;;;;;;5089767;28;20028;-62
2021/05/27 10:05:55;;;;;;;8.43;3.53;;;20.00;49.30;;;;;;5098521;28;20024;-64
2021/05/27 10:08:21;;;;;;;9.68;3.70;;;20.00;49.30;;;;;;5084142;28;20050;-63
2021/05/27 10:10:51;;;;;;;8.88;3.22;;;20.00;49.30;;;;;;5085637;28;20020;-63
2021/05/27 10:13:20;;;;;;;8.02;3.47;;;20.00;49.40;;;;;;5091502;28;20036;-63
2021/05/27 10:15:46;;;;;;;8.10;3.35;;;20.00;49.50;;;;;;5090088;28;20056;-63
2021/05/27 10:18:17;;;;;;;9.20;3.55;;;20.00;49.50;;;;;;5087406;28;20403;-63
2021/05/27 10:20:43;;;;;;;8.30;3.63;;;20.00;49.40;;;;;;5092623;28;20103;-63
2021/05/27 10:23:08;;;;;;;9.43;3.28;;;20.00;49.40;;;;;;5077754;28;20047;-63
2021/05/27 10:25:34;;;;;;;8.77;3.28;;;20.00;49.40;;;;;;5078935;28;20095;-63
2021/05/27 10:28:08;;;;;;;10.02;2.92;;;20.00;49.50;;;;;;5094396;28;20047;-62
2021/05/27 10:30:39;;;;;;;7.32;2.95;;;20.00;49.30;;;;;;5090518;28;20157;-61
2021/05/27 10:33:14;;;;;;;7.47;3.10;;;20.00;49.40;;;;;;5078008;28;20074;-63
2021/05/27 10:36:02;;;;;;;6.90;2.80;;;20.10;49.30;;;;;;5086626;28;20016;-64
2021/05/27 10:38:43;;;;;;;6.40;2.75;;;20.00;49.20;;;;;;5092433;28;20428;-63
2021/05/27 10:41:11;;;;;;;6.93;3.13;;;20.10;49.20;;;;;;5095098;28;20028;-63
2021/05/27 10:43:57;;;;;;;7.78;2.25;;;20.00;49.30;;;;;;5097993;28;20425;-66
2021/05/27 10:46:22;;;;;;;7.45;3.15;;;20.10;49.40;;;;;;5093409;28;20016;-63
2021/05/27 10:48:50;;;;;;;7.07;2.50;;;20.10;49.20;;;;;;5088748;28;20446;-63
2021/05/27 10:51:32;;;;;;;8.60;2.80;;;20.00;49.50;;;;;;5122305;28;20490;-63
2021/05/27 10:54:22;;;;;;;8.43;2.85;;;20.00;49.30;;;;;;5107202;28;20118;-62
2021/05/27 10:56:47;;;;;;;7.35;2.60;;;20.10;49.30;;;;;;5097844;28;20078;-65
2021/05/27 10:59:15;;;;;;;7.10;2.90;;;20.10;49.30;;;;;;5097696;28;20052;-63
2021/05/27 11:01:44;;;;;;;6.90;2.60;;;20.10;49.30;;;;;;5110880;28;20121;-62
2021/05/27 11:04:34;;;;;;;6.78;2.70;;;20.10;49.30;;;;;;5095788;28;20097;-62
2021/05/27 11:07:20;;;;;;;5.97;2.45;;;20.10;49.20;;;;;;5097038;28;20020;-63
2021/05/27 11:09:48;;;;;;;6.15;2.50;;;20.10;49.20;;;;;;5090606;28;20024;-61
2021/05/27 11:12:18;;;;;;;8.63;2.60;;;20.10;49.30;;;;;;5094510;28;20099;-62
2021/05/27 11:14:53;;;;;;;7.72;2.63;;;20.10;49.40;;;;;;5095214;28;20078;-62
2021/05/27 11:17:19;;;;;;;;;;;20.10;49.30;;;;;;5094464;28;20024;-62
2021/05/27 11:25:26;;;;;;;8.15;2.95;;;20.10;49.10;;;;;;5087575;28;20032;-62
2021/05/27 11:28:00;;;;;;;6.68;2.35;;;20.10;49.10;;;;;;5088500;28;20039;-62
2021/05/27 11:30:27;;;;;;;6.13;2.30;;;20.10;49.30;;;;;;5085247;28;20043;-64
2021/05/27 11:32:54;;;;;;;6.75;3.10;;;20.10;49.20;;;;;;5093716;28;20051;-62
2021/05/27 11:35:22;;;;;;;8.05;2.90;;;20.10;49.20;;;;;;5090068;28;20408;-62
2021/05/27 11:37:50;;;;;;;10.00;2.90;;;20.10;49.10;;;;;;5076922;28;20057;-62
2021/05/27 11:40:17;;;;;;;6.68;2.50;;;20.10;49.40;;;;;;5085773;28;20028;-63
2021/05/27 11:42:51;;;;;;;9.18;2.60;;;20.10;49.50;;;;;;5090262;28;20541;-62
2021/05/27 11:45:18;;;;;;;7.57;2.47;;;20.10;49.40;;;;;;5083280;28;20102;-63
2021/05/27 11:48:13;;;;;;;7.78;2.92;;;20.20;49.30;;;;;;5080976;28;20509;-62
2021/05/27 11:50:38;;;;;;;7.70;3.05;;;20.20;49.10;;;;;;5087884;28;20050;-61
2021/05/27 11:53:05;;;;;;;8.90;2.88;;;20.20;49.10;;;;;;5102136;28;20120;-62
2021/05/27 11:55:31;;;;;;;11.55;2.60;;;20.20;49.10;;;;;;5082064;28;20490;-61
2021/05/27 11:57:56;;;;;;;7.45;2.50;;;20.20;49.10;;;;;;5092602;28;20047;-62
2021/05/27 12:00:22;;;;;;;8.27;2.60;;;20.30;49.10;;;;;;5094025;28;20028;-63
2021/05/27 12:02:50;;;;;;;8.52;2.58;;;20.30;49.20;;;;;;5090312;28;20521;-63
2021/05/27 12:05:23;;;;;;;10.23;3.00;;;20.10;50.10;;;;;;5093145;28;20032;-61
2021/05/27 12:08:06;;;;;;;6.93;2.55;;;20.10;49.70;;;;;;5075253;28;20036;-62
2021/05/27 12:10:46;;;;;;;6.82;2.30;;;20.20;49.50;;;;;;5083592;28;20031;-61
2021/05/27 12:13:23;;;;;;;7.50;2.28;;;20.20;49.40;;;;;;5077112;28;20031;-61
2021/05/27 12:15:49;;;;;;;10.18;2.65;;;20.30;49.40;;;;;;5092812;28;20383;-61
2021/05/27 12:18:17;;;;;;;8.02;2.47;;;20.30;49.40;;;;;;5088643;28;20016;-62
2021/05/27 12:20:47;;;;;;;7.10;2.58;;;20.30;49.40;;;;;;5074493;28;20093;-62
2021/05/27 12:23:16;;;;;;;7.38;2.58;;;20.30;49.60;;;;;;5072453;28;20099;-63
2021/05/27 12:25:52;;;;;;;5.22;1.98;;;20.20;49.40;;;;;;5073486;28;20055;-62
2021/05/27 12:28:22;;;;;;;7.25;2.40;;;20.20;49.30;;;;;;5081985;28;20071;-63
2021/05/27 12:30:54;;;;;;;6.47;2.28;;;20.30;49.40;;;;;;5072828;28;20028;-63
2021/05/27 12:33:23;;;;;;;9.00;2.58;;;20.30;49.30;;;;;;5088387;28;20044;-64
2021/05/27 12:35:49;;;;;;;5.50;2.10;;;20.40;49.30;;;;;;5083912;28;20029;-62
2021/05/27 12:38:22;;;;;;;8.18;3.30;;;20.30;49.40;;;;;;5072804;28;20469;-64
2021/05/27 12:40:54;;;;;;;8.27;2.30;;;20.30;49.30;;;;;;5087737;28;20447;-62
2021/05/27 12:43:25;;;;;;;5.85;2.25;;;20.40;49.40;;;;;;5073082;28;20109;-62
2021/05/27 12:45:53;;;;;;;6.72;2.40;;;20.40;49.50;;;;;;5086327;28;20027;-61
2021/05/27 12:48:19;;;;;;;4.80;1.80;;;20.40;49.50;;;;;;5086886;28;20090;-60
2021/05/27 12:51:07;;;;;;;7.18;2.45;;;20.40;49.40;;;;;;5087881;28;20111;-61
2021/05/27 12:53:41;;;;;;;6.05;2.33;;;20.40;49.40;;;;;;5088797;28;20040;-61
2021/05/27 12:56:20;;;;;;;6.68;2.38;;;20.40;49.60;;;;;;5091974;28;20021;-62
2021/05/27 12:58:47;;;;;;;7.80;2.38;;;20.40;49.60;;;;;;5091454;28;20028;-64
2021/05/27 13:01:15;;;;;;;6.47;2.63;;;20.40;49.50;;;;;;5087723;28;20020;-63
2021/05/27 13:03:51;;;;;;;8.88;2.22;;;20.50;49.50;;;;;;5085610;28;20365;-60
2021/05/27 13:06:28;;;;;;;6.43;2.33;;;20.30;50.00;;;;;;5091927;28;20028;-62